createdAt,value
2022-11-21T00:01:23.170Z,95.76
2022-11-21T00:03:50.332Z,95.31
2022-11-21T00:06:17.948Z,95.15
2022-11-21T00:08:44.993Z,95.08
2022-11-21T00:11:11.698Z,95.19
2022-11-21T00:13:39.062Z,94.65
2022-11-21T00:16:09.851Z,94.64
2022-11-21T00:18:36.948Z,94.52
2022-11-21T00:21:07.791Z,94.50
2022-11-21T00:23:34.517Z,94.66
2022-11-21T00:26:05.203Z,94.85
2022-11-21T00:28:31.768Z,94.83
2022-11-21T00:30:58.312Z,94.55
2022-11-21T00:33:27.346Z,95.05
2022-11-21T00:35:53.902Z,94.77
2022-11-21T00:38:20.545Z,94.77
2022-11-21T00:40:47.045Z,94.85
2022-11-21T00:43:13.614Z,95.09
2022-11-21T00:45:40.168Z,94.97
2022-11-21T00:48:07.237Z,95.41
2022-11-21T00:50:33.846Z,95.41
2022-11-21T00:53:00.418Z,95.33
2022-11-21T00:55:31.767Z,95.30
2022-11-21T00:57:58.282Z,95.27
2022-11-21T01:00:24.904Z,94.76
2022-11-21T01:02:51.432Z,94.97
2022-11-21T01:05:20.529Z,94.86
2022-11-21T01:07:49.176Z,94.70
2022-11-21T01:10:15.767Z,95.17
2022-11-21T01:12:45.443Z,95.15
2022-11-21T01:15:12.301Z,95.41
2022-11-21T01:17:38.873Z,95.56
2022-11-21T01:20:07.069Z,95.71
2022-11-21T01:22:33.695Z,95.18
2022-11-21T01:25:00.224Z,95.11
2022-11-21T01:27:26.752Z,95.48
2022-11-21T01:29:55.755Z,95.24
2022-11-21T01:32:22.366Z,95.22
2022-11-21T01:34:48.961Z,95.89
2022-11-21T01:37:17.697Z,95.74
2022-11-21T01:39:44.653Z,96.07
2022-11-21T01:42:13.775Z,96.46
2022-11-21T01:44:55.185Z,96.52
2022-11-21T01:47:23.994Z,96.25
2022-11-21T01:49:52.743Z,95.92
2022-11-21T01:52:31.050Z,95.69
2022-11-21T01:55:03.047Z,95.04
2022-11-21T01:57:43.413Z,95.28
2022-11-21T02:00:16.576Z,95.42
2022-11-21T02:02:51.384Z,95.54
2022-11-21T02:05:22.043Z,95.68
2022-11-21T02:07:50.813Z,95.75
2022-11-21T02:10:20.540Z,95.56
2022-11-21T02:12:53.745Z,95.58
2022-11-21T02:15:23.841Z,95.29
2022-11-21T02:17:50.475Z,96.16
2022-11-21T02:20:23.618Z,95.88
2022-11-21T02:22:58.669Z,96.51
2022-11-21T02:25:30.719Z,95.96
2022-11-21T02:28:03.045Z,95.91
2022-11-21T02:30:36.962Z,96.11
2022-11-21T02:33:03.689Z,95.48
2022-11-21T02:35:30.539Z,95.41
2022-11-21T02:38:03.949Z,94.83
2022-11-21T02:40:43.432Z,95.17
2022-11-21T02:43:33.077Z,95.20
2022-11-21T02:45:59.629Z,95.42
2022-11-21T02:48:26.162Z,95.63
2022-11-21T02:50:52.721Z,95.73
2022-11-21T02:53:21.575Z,96.09
2022-11-21T02:55:48.177Z,95.78
2022-11-21T02:58:15.385Z,95.56
2022-11-21T03:00:43.630Z,95.73
2022-11-21T03:03:12.477Z,95.21
2022-11-21T03:05:41.916Z,95.42
2022-11-21T03:08:10.749Z,95.48
2022-11-21T03:10:37.806Z,95.56
2022-11-21T03:13:04.442Z,95.72
2022-11-21T03:15:34.113Z,95.86
2022-11-21T03:18:03.245Z,95.71
2022-11-21T03:20:31.501Z,95.64
2022-11-21T03:22:58.202Z,95.62
2022-11-21T03:25:24.948Z,96.01
2022-11-21T03:27:53.410Z,96.57
2022-11-21T03:30:24.819Z,96.49
2022-11-21T03:32:55.101Z,96.86
2022-11-21T03:35:21.586Z,97.04
2022-11-21T03:37:51.087Z,96.87
2022-11-21T03:40:17.733Z,96.27
2022-11-21T03:42:44.598Z,96.13
2022-11-21T03:45:11.420Z,96.42
2022-11-21T03:47:37.937Z,96.84
2022-11-21T03:50:07.263Z,96.80
2022-11-21T03:52:33.946Z,96.45
2022-11-21T03:55:00.494Z,96.29
2022-11-21T03:57:27.218Z,96.47
2022-11-21T03:59:53.714Z,96.41
2022-11-21T04:02:20.317Z,96.46
2022-11-21T04:04:46.822Z,96.51
2022-11-21T04:07:13.357Z,96.18
2022-11-21T04:09:39.923Z,96.55
2022-11-21T04:12:08.018Z,96.26
2022-11-21T04:14:35.002Z,96.40
2022-11-21T04:17:01.617Z,96.76
2022-11-21T04:19:28.180Z,96.18
2022-11-21T04:21:54.728Z,96.45
2022-11-21T04:24:21.277Z,96.45
2022-11-21T04:26:47.759Z,96.20
2022-11-21T04:29:14.550Z,96.51
2022-11-21T04:31:41.454Z,95.97
2022-11-21T04:34:07.948Z,96.70
2022-11-21T04:36:34.643Z,96.25
2022-11-21T04:39:01.188Z,96.75
2022-11-21T04:41:28.028Z,96.55
2022-11-21T04:43:54.686Z,96.22
2022-11-21T04:46:21.219Z,96.59
2022-11-21T04:48:47.717Z,96.29
2022-11-21T04:51:14.392Z,96.70
2022-11-21T04:53:43.064Z,96.78
2022-11-21T04:56:10.208Z,96.49
2022-11-21T04:58:36.800Z,96.97
2022-11-21T05:01:08.223Z,97.03
2022-11-21T05:03:35.194Z,96.86
2022-11-21T05:06:04.074Z,97.50
2022-11-21T05:08:32.837Z,97.23
2022-11-21T05:11:18.024Z,97.22
2022-11-21T05:13:44.553Z,96.86
2022-11-21T05:16:11.357Z,97.11
2022-11-21T05:18:37.923Z,97.22
2022-11-21T05:21:04.606Z,97.10
2022-11-21T05:23:31.185Z,97.02
2022-11-21T05:26:00.261Z,96.80
2022-11-21T05:28:27.092Z,97.24
2022-11-21T05:30:53.741Z,97.05
2022-11-21T05:33:20.565Z,97.60
2022-11-21T05:35:49.473Z,97.57
2022-11-21T05:38:16.072Z,96.90
2022-11-21T05:40:42.619Z,96.75
2022-11-21T05:43:30.201Z,97.08
2022-11-21T05:45:56.813Z,96.94
2022-11-21T05:48:23.394Z,97.14
2022-11-21T05:50:50.509Z,96.88
2022-11-21T05:53:17.619Z,97.09
2022-11-21T05:55:49.339Z,97.20
2022-11-21T05:58:16.676Z,96.63
2022-11-21T06:00:43.229Z,97.43
2022-11-21T06:03:30.599Z,96.92
2022-11-21T06:06:07.900Z,96.66
2022-11-21T06:08:42.068Z,96.98
2022-11-21T06:11:11.503Z,97.13
2022-11-21T06:13:38.224Z,96.59
2022-11-21T06:16:10.561Z,96.79
2022-11-21T06:18:41.539Z,96.84
2022-11-21T06:21:12.361Z,97.07
2022-11-21T06:23:39.237Z,97.18
2022-11-21T06:26:11.737Z,97.00
2022-11-21T06:28:40.391Z,96.70
2022-11-21T06:31:09.097Z,96.80
2022-11-21T06:33:39.104Z,97.09
2022-11-21T06:36:11.001Z,97.32
2022-11-21T06:38:37.897Z,97.13
2022-11-21T06:41:12.149Z,97.08
2022-11-21T06:43:39.138Z,96.77
2022-11-21T06:46:08.470Z,96.78
2022-11-21T06:48:36.368Z,96.77
2022-11-21T06:51:07.669Z,96.88
2022-11-21T06:53:34.965Z,96.86
2022-11-21T06:56:02.584Z,97.33
2022-11-21T06:58:29.294Z,96.80
2022-11-21T07:00:56.390Z,96.93
2022-11-21T07:03:25.701Z,96.78
2022-11-21T07:05:58.553Z,97.21
2022-11-21T07:08:25.334Z,96.85
2022-11-21T07:11:17.785Z,96.91
2022-11-21T07:13:38.610Z,97.15
2022-11-21T07:16:17.602Z,96.88
2022-11-21T07:18:46.563Z,97.31
2022-11-21T07:21:13.185Z,97.00
2022-11-21T07:23:42.723Z,96.88
2022-11-21T07:26:11.021Z,97.31
2022-11-21T07:28:39.868Z,97.25
2022-11-21T07:31:12.912Z,97.32
2022-11-21T07:33:40.261Z,97.15
2022-11-21T07:36:07.380Z,97.49
2022-11-21T07:38:34.139Z,97.49
2022-11-21T07:41:03.686Z,97.29
2022-11-21T07:43:30.247Z,97.30
2022-11-21T07:45:56.789Z,96.96
2022-11-21T07:48:23.380Z,97.25
2022-11-21T07:50:50.022Z,97.55
2022-11-21T07:53:18.673Z,97.33
2022-11-21T07:55:45.311Z,96.99
2022-11-21T07:58:15.035Z,96.88
2022-11-21T08:00:45.214Z,97.15
2022-11-21T08:03:13.210Z,96.71
2022-11-21T08:05:42.047Z,96.80
2022-11-21T08:08:10.140Z,96.50
2022-11-21T08:10:42.388Z,96.71
2022-11-21T08:13:09.205Z,96.54
2022-11-21T08:15:36.514Z,96.31
2022-11-21T08:18:09.695Z,96.20
2022-11-21T08:20:36.344Z,96.71
2022-11-21T08:23:03.097Z,96.30
2022-11-21T08:25:30.478Z,96.47
2022-11-21T08:27:58.201Z,96.43
2022-11-21T08:30:27.412Z,96.27
2022-11-21T08:32:54.033Z,95.65
2022-11-21T08:35:23.074Z,94.77
2022-11-21T08:37:49.804Z,94.16
2022-11-21T08:40:18.626Z,93.52
2022-11-21T08:42:45.195Z,93.69
2022-11-21T08:45:14.218Z,93.96
2022-11-21T08:47:43.012Z,94.48
2022-11-21T08:50:11.769Z,94.78
2022-11-21T08:52:40.522Z,95.04
2022-11-21T08:55:08.146Z,95.32
2022-11-21T08:57:41.718Z,95.95
2022-11-21T09:00:12.556Z,96.16
2022-11-21T09:02:39.101Z,96.26
2022-11-21T09:05:06.279Z,96.43
2022-11-21T09:07:32.745Z,96.56
2022-11-21T09:09:59.362Z,96.55
2022-11-21T09:12:25.947Z,96.71
2022-11-21T09:15:11.270Z,96.17
2022-11-21T09:17:56.641Z,95.43
2022-11-21T09:20:23.641Z,94.16
2022-11-21T09:22:50.409Z,93.35
2022-11-21T09:25:19.429Z,93.28
2022-11-21T09:27:47.048Z,92.83
2022-11-21T09:30:14.034Z,92.85
2022-11-21T09:32:40.757Z,92.53
2022-11-21T09:35:08.016Z,92.38
2022-11-21T09:37:38.323Z,92.71
2022-11-21T09:40:08.041Z,92.23
2022-11-21T09:42:53.858Z,92.33
2022-11-21T09:45:26.425Z,92.27
2022-11-21T09:47:53.353Z,92.18
2022-11-21T09:50:35.730Z,92.08
2022-11-21T09:53:16.166Z,92.38
2022-11-21T09:55:47.581Z,92.15
2022-11-21T09:58:42.278Z,92.44
2022-11-21T10:01:14.022Z,92.06
2022-11-21T10:03:49.325Z,92.29
2022-11-21T10:06:24.319Z,92.10
2022-11-21T10:09:06.150Z,92.28
2022-11-21T10:12:11.391Z,92.71
2022-11-21T10:14:37.927Z,93.16
2022-11-21T10:17:38.477Z,92.80
2022-11-21T10:20:29.305Z,93.23
2022-11-21T10:23:00.473Z,92.80
2022-11-21T10:25:33.386Z,92.64
2022-11-21T10:28:13.867Z,93.06
2022-11-21T10:30:50.614Z,93.18
2022-11-21T10:33:33.876Z,93.38
2022-11-21T10:36:12.152Z,92.48
2022-11-21T10:38:41.718Z,92.35
2022-11-21T10:41:31.214Z,92.20
2022-11-21T10:44:42.079Z,92.23
2022-11-21T10:47:27.969Z,92.71
2022-11-21T10:50:09.535Z,92.92
2022-11-21T10:52:49.415Z,92.71
2022-11-21T10:55:17.812Z,92.55
2022-11-21T10:57:49.785Z,92.32
2022-11-21T11:00:26.926Z,92.50
2022-11-21T11:02:56.531Z,92.43
2022-11-21T11:05:25.457Z,92.12
2022-11-21T11:08:12.487Z,92.30
2022-11-21T11:10:41.230Z,91.82
2022-11-21T11:13:52.502Z,91.86
2022-11-21T11:16:24.465Z,91.28
2022-11-21T11:19:14.136Z,90.73
2022-11-21T11:21:44.364Z,90.37
2022-11-21T11:24:13.446Z,90.18
2022-11-21T11:26:49.527Z,89.92
2022-11-21T11:29:28.289Z,89.65
2022-11-21T11:32:05.171Z,89.09
2022-11-21T11:34:49.049Z,88.75
2022-11-21T11:37:40.424Z,89.33
2022-11-21T11:40:07.666Z,89.17
2022-11-21T11:43:05.352Z,88.82
2022-11-21T11:46:15.864Z,88.91
2022-11-21T11:49:11.308Z,88.66
2022-11-21T11:51:46.984Z,88.84
2022-11-21T11:54:29.887Z,88.22
2022-11-21T11:56:59.887Z,87.99
2022-11-21T11:59:32.910Z,87.75
2022-11-21T12:02:29.206Z,87.70
2022-11-21T12:04:59.241Z,87.75
2022-11-21T12:10:26.199Z,88.08
2022-11-21T12:12:58.440Z,87.80
2022-11-21T12:15:48.897Z,87.71
2022-11-21T12:18:15.393Z,88.22
2022-11-21T12:20:59.319Z,87.41
2022-11-21T12:23:36.898Z,87.37
2022-11-21T12:26:36.356Z,87.70
2022-11-21T12:29:25.743Z,88.05
2022-11-21T12:32:07.269Z,88.20
2022-11-21T12:34:59.860Z,88.01
2022-11-21T12:37:47.028Z,87.47
2022-11-21T12:40:19.934Z,87.48
2022-11-21T12:42:49.409Z,87.57
2022-11-21T12:45:37.885Z,86.68
2022-11-21T12:48:54.652Z,86.31
2022-11-21T12:51:55.522Z,86.33
2022-11-21T12:54:40.115Z,86.14
2022-11-21T12:57:20.609Z,86.01
2022-11-21T12:59:50.727Z,86.09
2022-11-21T13:02:39.528Z,85.61
2022-11-21T13:05:12.676Z,85.19
2022-11-21T13:07:41.013Z,85.75
2022-11-21T13:10:16.185Z,84.99
2022-11-21T13:13:09.939Z,85.33
2022-11-21T13:16:00.610Z,85.37
2022-11-21T13:18:44.296Z,85.23
2022-11-21T13:21:46.168Z,85.02
2022-11-21T13:24:44.948Z,84.84
2022-11-21T13:27:38.148Z,84.89
2022-11-21T13:30:11.485Z,84.71
2022-11-21T13:32:42.102Z,84.95
2022-11-21T13:35:22.141Z,85.19
2022-11-21T13:38:13.302Z,84.93
2022-11-21T13:41:08.045Z,85.47
2022-11-21T13:43:35.688Z,85.34
2022-11-21T13:46:28.660Z,85.46
2022-11-21T13:49:04.848Z,85.44
2022-11-21T13:51:50.554Z,85.57
2022-11-21T13:54:38.811Z,85.78
2022-11-21T13:57:19.610Z,85.70
2022-11-21T13:59:47.069Z,86.12
2022-11-21T14:02:39.775Z,85.67
2022-11-21T14:05:25.037Z,85.96
2022-11-21T14:07:51.837Z,86.59
2022-11-21T14:10:25.291Z,85.96
2022-11-21T14:12:54.891Z,85.93
2022-11-21T14:15:40.225Z,86.20
2022-11-21T14:18:22.645Z,86.44
2022-11-21T14:20:53.923Z,86.40
2022-11-21T14:23:22.697Z,86.43
2022-11-21T14:25:54.235Z,86.44
2022-11-21T14:28:32.497Z,86.12
2022-11-21T14:31:07.624Z,86.44
2022-11-21T14:33:36.256Z,86.29
2022-11-21T14:36:14.739Z,86.45
2022-11-21T14:39:07.577Z,86.41
2022-11-21T14:41:37.828Z,86.52
2022-11-21T14:44:13.798Z,86.15
2022-11-21T14:46:42.173Z,86.21
2022-11-21T14:49:23.316Z,86.02
2022-11-21T14:51:59.991Z,85.98
2022-11-21T14:54:31.990Z,86.09
2022-11-21T14:57:08.943Z,85.90
2022-11-21T14:59:43.588Z,86.05
2022-11-21T15:02:21.165Z,86.33
2022-11-21T15:04:50.105Z,86.17
2022-11-21T15:07:26.945Z,86.24
2022-11-21T15:13:16.069Z,86.45
2022-11-21T15:15:47.215Z,86.54
2022-11-21T15:18:28.632Z,86.48
2022-11-21T15:21:00.698Z,86.52
2022-11-21T15:23:33.175Z,86.70
2022-11-21T15:26:04.733Z,86.20
2022-11-21T15:28:31.902Z,86.38
2022-11-21T15:31:17.391Z,86.08
2022-11-21T15:34:34.148Z,86.71
2022-11-21T15:37:17.362Z,86.40
2022-11-21T15:39:55.742Z,86.74
2022-11-21T15:42:31.502Z,86.82
2022-11-21T15:44:59.333Z,86.62
2022-11-21T15:47:26.075Z,86.47
2022-11-21T15:49:55.233Z,86.65
2022-11-21T15:52:24.212Z,86.84
2022-11-21T15:54:50.866Z,86.47
2022-11-21T15:59:50.346Z,86.53
2022-11-21T16:02:17.092Z,86.97
2022-11-21T16:04:43.733Z,86.44
2022-11-21T16:07:10.405Z,86.83
2022-11-21T16:09:40.881Z,86.46
2022-11-21T16:12:09.263Z,86.17
2022-11-21T16:14:35.794Z,86.83
2022-11-21T16:17:04.867Z,86.67
2022-11-21T16:19:31.665Z,86.39
2022-11-21T16:21:58.491Z,86.27
2022-11-21T16:24:24.962Z,86.65
2022-11-21T16:26:54.534Z,86.45
2022-11-21T16:29:23.406Z,86.15
2022-11-21T16:31:50.435Z,86.35
2022-11-21T16:34:20.240Z,86.49
2022-11-21T16:36:46.879Z,86.36
2022-11-21T16:39:29.587Z,86.43
2022-11-21T16:41:59.091Z,86.34
2022-11-21T16:44:29.877Z,86.43
2022-11-21T16:46:56.431Z,86.56
2022-11-21T16:49:25.408Z,86.33
2022-11-21T16:51:52.141Z,86.68
2022-11-21T16:54:18.775Z,86.53
2022-11-21T16:56:45.339Z,86.84
2022-11-21T16:59:11.911Z,86.65
2022-11-21T17:01:38.653Z,86.68
2022-11-21T17:04:05.506Z,86.93
2022-11-21T17:06:32.103Z,86.82
2022-11-21T17:09:01.070Z,86.70
2022-11-21T17:11:31.076Z,86.77
2022-11-21T17:14:03.756Z,87.01
2022-11-21T17:16:31.336Z,86.67
2022-11-21T17:19:00.421Z,86.63
2022-11-21T17:21:30.344Z,87.14
2022-11-21T17:23:57.588Z,86.79
2022-11-21T17:26:26.785Z,86.59
2022-11-21T17:29:03.673Z,86.66
2022-11-21T17:31:30.996Z,87.05
2022-11-21T17:34:01.893Z,86.75
2022-11-21T17:36:30.138Z,86.95
2022-11-21T17:38:58.918Z,86.70
2022-11-21T17:41:26.185Z,86.60
2022-11-21T17:43:58.917Z,86.60
2022-11-21T17:46:26.108Z,86.52
2022-11-21T17:48:57.145Z,86.83
2022-11-21T17:51:34.495Z,86.76
2022-11-21T17:54:01.972Z,86.78
2022-11-21T17:56:31.993Z,86.46
2022-11-21T17:58:59.028Z,86.44
2022-11-21T18:01:25.964Z,86.71
2022-11-21T18:03:57.220Z,86.46
2022-11-21T18:06:25.597Z,86.09
2022-11-21T18:08:52.390Z,86.46
2022-11-21T18:11:24.247Z,86.73
2022-11-21T18:13:51.090Z,86.42
2022-11-21T18:16:20.775Z,86.56
2022-11-21T18:18:49.569Z,86.57
2022-11-21T18:21:19.072Z,86.11
2022-11-21T18:23:47.135Z,86.16
2022-11-21T18:26:22.204Z,86.16
2022-11-21T18:29:13.429Z,85.99
2022-11-21T18:31:42.786Z,86.70
2022-11-21T18:34:09.963Z,86.26
2022-11-21T18:36:36.640Z,86.49
2022-11-21T18:39:08.717Z,86.25
2022-11-21T18:41:41.044Z,86.34
2022-11-21T18:44:07.802Z,86.07
2022-11-21T18:46:36.528Z,86.06
2022-11-21T18:49:07.723Z,86.02
2022-11-21T18:51:35.622Z,86.34
2022-11-21T18:54:06.703Z,86.43
2022-11-21T18:56:34.456Z,86.03
2022-11-21T18:59:01.863Z,86.45
2022-11-21T19:01:30.273Z,86.30
2022-11-21T19:03:57.451Z,86.66
2022-11-21T19:06:28.285Z,86.44
2022-11-21T19:08:58.344Z,86.54
2022-11-21T19:11:27.784Z,86.90
2022-11-21T19:14:43.464Z,86.82
2022-11-21T19:17:10.406Z,86.62
2022-11-21T19:19:39.361Z,86.61
2022-11-21T19:22:06.405Z,87.05
2022-11-21T19:24:33.497Z,87.13
2022-11-21T19:27:00.129Z,87.23
2022-11-21T19:29:26.972Z,86.96
2022-11-21T19:31:56.277Z,87.47
2022-11-21T19:34:22.831Z,87.63
2022-11-21T19:36:51.746Z,88.27
2022-11-21T19:39:18.350Z,87.97
2022-11-21T19:41:44.929Z,88.04
2022-11-21T19:44:11.605Z,88.43
2022-11-21T19:46:41.603Z,88.32
2022-11-21T19:49:11.234Z,88.38
2022-11-21T19:51:40.519Z,88.31
2022-11-21T19:54:09.258Z,88.04
2022-11-21T19:56:36.457Z,88.30
2022-11-21T19:59:04.291Z,88.51
2022-11-21T20:01:33.536Z,88.34
2022-11-21T20:04:04.953Z,88.60
2022-11-21T20:06:37.971Z,88.73
2022-11-21T20:09:11.376Z,88.22
2022-11-21T20:11:40.386Z,88.39
2022-11-21T20:14:07.293Z,88.39
2022-11-21T20:16:42.932Z,88.67
2022-11-21T20:19:15.053Z,88.69
2022-11-21T20:21:43.170Z,88.72
2022-11-21T20:24:10.968Z,89.00
2022-11-21T20:26:37.630Z,88.82
2022-11-21T20:29:07.140Z,89.18
2022-11-21T20:31:37.302Z,89.16
2022-11-21T20:34:07.379Z,89.33
2022-11-21T20:36:36.937Z,89.25
2022-11-21T20:39:12.924Z,89.34
2022-11-21T20:41:41.783Z,89.52
2022-11-21T20:47:03.016Z,89.43
2022-11-21T20:49:29.900Z,89.17
2022-11-21T20:54:43.294Z,89.44
2022-11-21T20:57:14.848Z,89.38
2022-11-21T20:59:41.998Z,89.82
2022-11-21T21:02:12.329Z,90.16
2022-11-21T21:04:39.133Z,89.84
2022-11-21T21:07:05.707Z,89.85
2022-11-21T21:09:32.434Z,89.66
2022-11-21T21:11:59.108Z,90.07
2022-11-21T21:14:25.743Z,89.82
2022-11-21T21:16:52.272Z,89.65
2022-11-21T21:19:19.111Z,89.94
2022-11-21T21:21:46.035Z,89.94
2022-11-21T21:24:15.954Z,89.84
2022-11-21T21:26:47.697Z,90.30
2022-11-21T21:29:18.226Z,90.00
2022-11-21T21:31:50.408Z,90.03
2022-11-21T21:34:18.253Z,89.91
2022-11-21T21:36:45.142Z,90.10
2022-11-21T21:39:12.037Z,90.29
2022-11-21T21:41:44.702Z,90.21
2022-11-21T21:44:11.787Z,90.65
2022-11-21T21:46:38.338Z,90.45
2022-11-21T21:49:05.249Z,90.84
2022-11-21T21:51:32.325Z,90.50
2022-11-21T21:54:02.162Z,90.88
2022-11-21T21:56:29.563Z,90.57
2022-11-21T21:59:00.636Z,90.98
2022-11-21T22:01:30.190Z,90.90
2022-11-21T22:04:01.214Z,90.95
2022-11-21T22:06:28.714Z,91.06
2022-11-21T22:08:56.066Z,90.82
2022-11-21T22:11:27.607Z,90.88
2022-11-21T22:14:00.011Z,90.81
2022-11-21T22:16:27.070Z,91.02
2022-11-21T22:18:54.132Z,91.00
2022-11-21T22:21:33.520Z,91.16
2022-11-21T22:24:24.212Z,91.01
2022-11-21T22:26:51.082Z,90.94
2022-11-21T22:29:20.815Z,91.19
2022-11-21T22:31:47.406Z,91.39
2022-11-21T22:34:14.439Z,91.22
2022-11-21T22:36:41.610Z,91.10
2022-11-21T22:39:08.258Z,91.11
2022-11-21T22:41:37.130Z,91.17
2022-11-21T22:44:04.004Z,91.53
2022-11-21T22:46:31.267Z,91.56
2022-11-21T22:48:58.221Z,90.75
2022-11-21T22:51:27.088Z,91.20
2022-11-21T22:53:53.826Z,91.18
2022-11-21T22:56:22.437Z,91.63
2022-11-21T22:58:49.440Z,91.77
2022-11-21T23:01:19.179Z,91.88
2022-11-21T23:03:46.440Z,91.61
2022-11-21T23:06:15.732Z,91.60
2022-11-21T23:08:43.151Z,91.48
2022-11-21T23:11:10.947Z,91.50
2022-11-21T23:13:39.759Z,91.51
2022-11-21T23:16:07.470Z,91.64
2022-11-21T23:18:35.153Z,92.05
2022-11-21T23:21:02.416Z,91.64
2022-11-21T23:23:31.716Z,92.00
2022-11-21T23:25:58.565Z,91.91
2022-11-21T23:28:25.897Z,92.22
2022-11-21T23:30:52.571Z,92.20
2022-11-21T23:33:19.418Z,91.96
2022-11-21T23:35:46.992Z,92.31
2022-11-21T23:38:15.264Z,92.41
2022-11-21T23:40:42.056Z,92.22
2022-11-21T23:43:11.169Z,92.20
2022-11-21T23:45:42.245Z,92.24
2022-11-21T23:48:11.189Z,92.67
2022-11-21T23:50:40.079Z,92.63
2022-11-21T23:53:06.618Z,92.69
2022-11-21T23:55:36.165Z,92.73
2022-11-21T23:58:02.733Z,92.86
